sensor_id;sensor_type;location;lat;lon;timestamp;temperature;humidity
2387;DHT22;49473;50.772;8.768;2022-11-11T00:01:24;5.70;99.90
2387;DHT22;49473;50.772;8.768;2022-11-11T00:03:54;5.70;99.90
2387;DHT22;49473;50.772;8.768;2022-11-11T00:06:22;5.70;99.90
2387;DHT22;49473;50.772;8.768;2022-11-11T00:08:49;5.70;99.90
2387;DHT22;49473;50.772;8.768;2022-11-11T00:11:16;5.70;99.90
2387;DHT22;49473;50.772;8.768;2022-11-11T00:13:43;5.60;99.90
2387;DHT22;49473;50.772;8.768;2022-11-11T00:16:12;5.50;99.90
2387;DHT22;49473;50.772;8.768;2022-11-11T00:18:40;5.40;99.90
2387;DHT22;49473;50.772;8.768;2022-11-11T00:21:26;5.40;99.90
2387;DHT22;49473;50.772;8.768;2022-11-11T00:24:22;5.40;99.90
2387;DHT22;49473;50.772;8.768;2022-11-11T00:27:09;5.40;99.90
2387;DHT22;49473;50.772;8.768;2022-11-11T00:29:36;5.40;99.90
2387;DHT22;49473;50.772;8.768;2022-11-11T00:32:04;5.50;99.90
2387;DHT22;49473;50.772;8.768;2022-11-11T00:34:53;5.60;99.90
2387;DHT22;49473;50.772;8.768;2022-11-11T00:37:40;5.60;99.90
2387;DHT22;49473;50.772;8.768;2022-11-11T00:40:09;5.60;99.90
2387;DHT22;49473;50.772;8.768;2022-11-11T00:42:37;5.40;99.90
2387;DHT22;49473;50.772;8.768;2022-11-11T00:45:04;5.30;99.90
2387;DHT22;49473;50.772;8.768;2022-11-11T00:47:31;5.40;99.90
2387;DHT22;49473;50.772;8.768;2022-11-11T00:50:18;5.50;99.90
2387;DHT22;49473;50.772;8.768;2022-11-11T00:53:08;5.60;99.90
2387;DHT22;49473;50.772;8.768;2022-11-11T00:55:36;5.70;99.90
2387;DHT22;49473;50.772;8.768;2022-11-11T00:58:03;5.90;99.90
2387;DHT22;49473;50.772;8.768;2022-11-11T01:00:29;6.00;99.90
2387;DHT22;49473;50.772;8.768;2022-11-11T01:02:56;6.20;99.90
2387;DHT22;49473;50.772;8.768;2022-11-11T01:05:23;6.30;99.90
2387;DHT22;49473;50.772;8.768;2022-11-11T01:07:50;6.40;99.90
2387;DHT22;49473;50.772;8.768;2022-11-11T01:10:19;6.40;99.90
2387;DHT22;49473;50.772;8.768;2022-11-11T01:13:00;6.40;99.90
2387;DHT22;49473;50.772;8.768;2022-11-11T01:15:37;6.50;99.90
2387;DHT22;49473;50.772;8.768;2022-11-11T01:18:04;6.70;99.90
2387;DHT22;49473;50.772;8.768;2022-11-11T01:20:31;6.80;99.90
2387;DHT22;49473;50.772;8.768;2022-11-11T01:22:57;6.90;99.90
2387;DHT22;49473;50.772;8.768;2022-11-11T01:25:26;6.90;99.90
2387;DHT22;49473;50.772;8.768;2022-11-11T01:27:52;7.00;99.90
2387;DHT22;49473;50.772;8.768;2022-11-11T01:30:19;7.00;99.90
2387;DHT22;49473;50.772;8.768;2022-11-11T01:32:46;7.00;99.90
2387;DHT22;49473;50.772;8.768;2022-11-11T01:35:13;7.10;99.90
2387;DHT22;49473;50.772;8.768;2022-11-11T01:37:40;7.20;99.90
2387;DHT22;49473;50.772;8.768;2022-11-11T01:40:08;7.20;99.90
2387;DHT22;49473;50.772;8.768;2022-11-11T01:42:47;7.20;99.90
2387;DHT22;49473;50.772;8.768;2022-11-11T01:48:28;7.30;99.90
2387;DHT22;49473;50.772;8.768;2022-11-11T01:51:18;7.40;99.90
2387;DHT22;49473;50.772;8.768;2022-11-11T01:53:48;7.40;99.90
2387;DHT22;49473;50.772;8.768;2022-11-11T01:56:15;7.40;99.90
2387;DHT22;49473;50.772;8.768;2022-11-11T01:58:45;7.40;99.90
2387;DHT22;49473;50.772;8.768;2022-11-11T02:01:12;7.50;99.90
2387;DHT22;49473;50.772;8.768;2022-11-11T02:03:40;7.50;99.90
2387;DHT22;49473;50.772;8.768;2022-11-11T02:06:28;7.50;99.90
2387;DHT22;49473;50.772;8.768;2022-11-11T02:08:54;7.50;99.90
2387;DHT22;49473;50.772;8.768;2022-11-11T02:11:23;7.50;99.90
2387;DHT22;49473;50.772;8.768;2022-11-11T02:14:10;7.50;99.90
2387;DHT22;49473;50.772;8.768;2022-11-11T02:16:55;7.50;99.90
2387;DHT22;49473;50.772;8.768;2022-11-11T02:19:27;7.50;99.90
2387;DHT22;49473;50.772;8.768;2022-11-11T02:22:00;7.50;99.90
2387;DHT22;49473;50.772;8.768;2022-11-11T02:24:30;7.50;99.90
2387;DHT22;49473;50.772;8.768;2022-11-11T02:26:57;7.60;99.90
2387;DHT22;49473;50.772;8.768;2022-11-11T02:29:27;7.60;99.90
2387;DHT22;49473;50.772;8.768;2022-11-11T02:31:55;7.50;99.90
2387;DHT22;49473;50.772;8.768;2022-11-11T02:34:28;7.60;99.90
2387;DHT22;49473;50.772;8.768;2022-11-11T02:36:55;7.60;99.90
2387;DHT22;49473;50.772;8.768;2022-11-11T02:39:22;7.60;99.90
2387;DHT22;49473;50.772;8.768;2022-11-11T02:41:51;7.50;99.90
2387;DHT22;49473;50.772;8.768;2022-11-11T02:44:23;7.60;99.90
2387;DHT22;49473;50.772;8.768;2022-11-11T02:46:51;7.70;99.90
2387;DHT22;49473;50.772;8.768;2022-11-11T02:49:18;7.70;99.90
2387;DHT22;49473;50.772;8.768;2022-11-11T02:51:45;7.70;99.90
2387;DHT22;49473;50.772;8.768;2022-11-11T02:54:12;7.70;99.90
2387;DHT22;49473;50.772;8.768;2022-11-11T02:56:39;7.60;99.90
2387;DHT22;49473;50.772;8.768;2022-11-11T02:59:24;7.60;99.90
2387;DHT22;49473;50.772;8.768;2022-11-11T03:01:51;7.50;99.90
2387;DHT22;49473;50.772;8.768;2022-11-11T03:04:18;7.50;99.90
2387;DHT22;49473;50.772;8.768;2022-11-11T03:06:44;7.50;99.90
2387;DHT22;49473;50.772;8.768;2022-11-11T03:09:11;7.50;99.90
2387;DHT22;49473;50.772;8.768;2022-11-11T03:11:38;7.60;99.90
2387;DHT22;49473;50.772;8.768;2022-11-11T03:14:05;7.50;99.90
2387;DHT22;49473;50.772;8.768;2022-11-11T03:16:33;7.60;99.90
2387;DHT22;49473;50.772;8.768;2022-11-11T03:19:18;7.60;99.90
2387;DHT22;49473;50.772;8.768;2022-11-11T03:21:45;7.50;99.90
2387;DHT22;49473;50.772;8.768;2022-11-11T03:24:12;7.50;99.90
2387;DHT22;49473;50.772;8.768;2022-11-11T03:26:38;7.50;99.90
2387;DHT22;49473;50.772;8.768;2022-11-11T03:29:04;7.50;99.90
2387;DHT22;49473;50.772;8.768;2022-11-11T03:31:31;7.50;99.90
2387;DHT22;49473;50.772;8.768;2022-11-11T03:33:59;7.40;99.90
2387;DHT22;49473;50.772;8.768;2022-11-11T03:36:42;7.50;99.90
2387;DHT22;49473;50.772;8.768;2022-11-11T03:39:27;7.50;99.90
2387;DHT22;49473;50.772;8.768;2022-11-11T03:41:55;7.60;99.90
2387;DHT22;49473;50.772;8.768;2022-11-11T03:44:22;7.60;99.90
2387;DHT22;49473;50.772;8.768;2022-11-11T03:46:49;7.60;99.90
2387;DHT22;49473;50.772;8.768;2022-11-11T03:49:17;7.60;99.90
2387;DHT22;49473;50.772;8.768;2022-11-11T03:51:44;7.60;99.90
2387;DHT22;49473;50.772;8.768;2022-11-11T03:54:11;7.70;99.90
2387;DHT22;49473;50.772;8.768;2022-11-11T03:56:38;7.70;99.90
2387;DHT22;49473;50.772;8.768;2022-11-11T03:59:05;7.70;99.90
2387;DHT22;49473;50.772;8.768;2022-11-11T04:01:31;7.70;99.90
2387;DHT22;49473;50.772;8.768;2022-11-11T04:04:17;7.70;99.90
2387;DHT22;49473;50.772;8.768;2022-11-11T04:07:01;7.80;99.90
2387;DHT22;49473;50.772;8.768;2022-11-11T04:09:45;7.70;99.90
2387;DHT22;49473;50.772;8.768;2022-11-11T04:12:31;7.70;99.90
2387;DHT22;49473;50.772;8.768;2022-11-11T04:15:19;7.70;99.90
2387;DHT22;49473;50.772;8.768;2022-11-11T04:18:03;7.70;99.90
2387;DHT22;49473;50.772;8.768;2022-11-11T04:20:31;7.70;99.90
2387;DHT22;49473;50.772;8.768;2022-11-11T04:23:15;7.70;99.90
2387;DHT22;49473;50.772;8.768;2022-11-11T04:25:42;7.60;99.90
2387;DHT22;49473;50.772;8.768;2022-11-11T04:28:14;7.70;99.90
2387;DHT22;49473;50.772;8.768;2022-11-11T04:30:58;7.70;99.90
2387;DHT22;49473;50.772;8.768;2022-11-11T04:33:25;7.60;99.90
2387;DHT22;49473;50.772;8.768;2022-11-11T04:35:53;7.60;99.90
2387;DHT22;49473;50.772;8.768;2022-11-11T04:38:20;7.50;99.90
2387;DHT22;49473;50.772;8.768;2022-11-11T04:41:05;7.50;99.90
2387;DHT22;49473;50.772;8.768;2022-11-11T04:43:33;7.50;99.90
2387;DHT22;49473;50.772;8.768;2022-11-11T04:46:20;7.60;99.90
2387;DHT22;49473;50.772;8.768;2022-11-11T04:48:46;7.60;99.90
2387;DHT22;49473;50.772;8.768;2022-11-11T04:51:14;7.70;99.90
2387;DHT22;49473;50.772;8.768;2022-11-11T04:53:41;7.70;99.90
2387;DHT22;49473;50.772;8.768;2022-11-11T04:56:08;7.70;99.90
2387;DHT22;49473;50.772;8.768;2022-11-11T04:59:00;7.70;99.90
2387;DHT22;49473;50.772;8.768;2022-11-11T05:01:41;7.60;99.90
2387;DHT22;49473;50.772;8.768;2022-11-11T05:04:25;7.60;99.90
2387;DHT22;49473;50.772;8.768;2022-11-11T05:06:53;7.50;99.90
2387;DHT22;49473;50.772;8.768;2022-11-11T05:09:37;7.50;99.90
2387;DHT22;49473;50.772;8.768;2022-11-11T05:12:05;7.50;99.90
2387;DHT22;49473;50.772;8.768;2022-11-11T05:14:31;7.50;99.90
2387;DHT22;49473;50.772;8.768;2022-11-11T05:17:16;7.60;99.90
2387;DHT22;49473;50.772;8.768;2022-11-11T05:20:00;7.60;99.90
2387;DHT22;49473;50.772;8.768;2022-11-11T05:22:46;7.70;99.90
2387;DHT22;49473;50.772;8.768;2022-11-11T05:25:13;7.70;99.90
2387;DHT22;49473;50.772;8.768;2022-11-11T05:27:51;7.70;99.90
2387;DHT22;49473;50.772;8.768;2022-11-11T05:30:19;7.60;99.90
2387;DHT22;49473;50.772;8.768;2022-11-11T05:32:46;7.70;99.90
2387;DHT22;49473;50.772;8.768;2022-11-11T05:35:14;7.70;99.90
2387;DHT22;49473;50.772;8.768;2022-11-11T05:37:41;7.70;99.90
2387;DHT22;49473;50.772;8.768;2022-11-11T05:40:11;7.60;99.90
2387;DHT22;49473;50.772;8.768;2022-11-11T05:42:40;7.70;99.90
2387;DHT22;49473;50.772;8.768;2022-11-11T05:45:08;7.60;99.90
2387;DHT22;49473;50.772;8.768;2022-11-11T05:47:35;7.60;99.90
2387;DHT22;49473;50.772;8.768;2022-11-11T05:50:02;7.60;99.90
2387;DHT22;49473;50.772;8.768;2022-11-11T05:52:29;7.50;99.90
2387;DHT22;49473;50.772;8.768;2022-11-11T05:54:57;7.50;99.90
2387;DHT22;49473;50.772;8.768;2022-11-11T05:57:25;7.50;99.90
2387;DHT22;49473;50.772;8.768;2022-11-11T05:59:52;7.50;99.90
2387;DHT22;49473;50.772;8.768;2022-11-11T06:02:19;7.50;99.90
2387;DHT22;49473;50.772;8.768;2022-11-11T06:04:45;7.60;99.90
2387;DHT22;49473;50.772;8.768;2022-11-11T06:07:12;7.50;99.90
2387;DHT22;49473;50.772;8.768;2022-11-11T06:09:39;7.50;99.90
2387;DHT22;49473;50.772;8.768;2022-11-11T06:12:06;7.50;99.90
2387;DHT22;49473;50.772;8.768;2022-11-11T06:14:34;7.50;99.90
2387;DHT22;49473;50.772;8.768;2022-11-11T06:17:01;7.60;99.90
2387;DHT22;49473;50.772;8.768;2022-11-11T06:19:27;7.60;99.90
2387;DHT22;49473;50.772;8.768;2022-11-11T06:21:54;7.60;99.90
2387;DHT22;49473;50.772;8.768;2022-11-11T06:24:26;7.60;99.90
2387;DHT22;49473;50.772;8.768;2022-11-11T06:26:53;7.60;99.90
2387;DHT22;49473;50.772;8.768;2022-11-11T06:29:19;7.50;99.90
2387;DHT22;49473;50.772;8.768;2022-11-11T06:31:47;7.50;99.90
2387;DHT22;49473;50.772;8.768;2022-11-11T06:34:14;7.50;99.90
2387;DHT22;49473;50.772;8.768;2022-11-11T06:36:41;7.50;99.90
2387;DHT22;49473;50.772;8.768;2022-11-11T06:39:08;7.40;99.90
2387;DHT22;49473;50.772;8.768;2022-11-11T06:41:37;7.40;99.90
2387;DHT22;49473;50.772;8.768;2022-11-11T06:44:04;7.50;99.90
2387;DHT22;49473;50.772;8.768;2022-11-11T06:46:31;7.50;99.90
2387;DHT22;49473;50.772;8.768;2022-11-11T06:48:59;7.50;99.90
2387;DHT22;49473;50.772;8.768;2022-11-11T06:51:26;7.50;99.90
2387;DHT22;49473;50.772;8.768;2022-11-11T06:53:52;7.60;99.90
2387;DHT22;49473;50.772;8.768;2022-11-11T06:56:19;7.60;99.90
2387;DHT22;49473;50.772;8.768;2022-11-11T06:58:46;7.60;99.90
2387;DHT22;49473;50.772;8.768;2022-11-11T07:01:13;7.60;99.90
2387;DHT22;49473;50.772;8.768;2022-11-11T07:03:40;7.60;99.90
2387;DHT22;49473;50.772;8.768;2022-11-11T07:06:08;7.70;99.90
2387;DHT22;49473;50.772;8.768;2022-11-11T07:08:35;7.70;99.90
2387;DHT22;49473;50.772;8.768;2022-11-11T07:11:01;7.60;99.90
2387;DHT22;49473;50.772;8.768;2022-11-11T07:13:28;7.60;99.90
2387;DHT22;49473;50.772;8.768;2022-11-11T07:15:55;7.60;99.90
2387;DHT22;49473;50.772;8.768;2022-11-11T07:18:23;7.50;99.90
2387;DHT22;49473;50.772;8.768;2022-11-11T07:20:50;7.50;99.90
2387;DHT22;49473;50.772;8.768;2022-11-11T07:23:18;7.60;99.90
2387;DHT22;49473;50.772;8.768;2022-11-11T07:25:44;7.60;99.90
2387;DHT22;49473;50.772;8.768;2022-11-11T07:28:11;7.60;99.90
2387;DHT22;49473;50.772;8.768;2022-11-11T07:30:38;7.50;99.90
2387;DHT22;49473;50.772;8.768;2022-11-11T07:33:05;7.60;99.90
2387;DHT22;49473;50.772;8.768;2022-11-11T07:35:32;7.60;99.90
2387;DHT22;49473;50.772;8.768;2022-11-11T07:37:59;7.70;99.90
2387;DHT22;49473;50.772;8.768;2022-11-11T07:40:27;7.70;99.90
2387;DHT22;49473;50.772;8.768;2022-11-11T07:42:54;7.70;99.90
2387;DHT22;49473;50.772;8.768;2022-11-11T07:45:20;7.60;99.90
2387;DHT22;49473;50.772;8.768;2022-11-11T07:47:47;7.60;99.90
2387;DHT22;49473;50.772;8.768;2022-11-11T07:50:14;7.70;99.90
2387;DHT22;49473;50.772;8.768;2022-11-11T07:52:47;7.70;99.90
2387;DHT22;49473;50.772;8.768;2022-11-11T07:55:14;7.60;99.90
2387;DHT22;49473;50.772;8.768;2022-11-11T07:57:42;7.60;99.90
2387;DHT22;49473;50.772;8.768;2022-11-11T08:00:10;7.70;99.90
2387;DHT22;49473;50.772;8.768;2022-11-11T08:02:37;7.70;99.90
2387;DHT22;49473;50.772;8.768;2022-11-11T08:05:04;7.70;99.90
2387;DHT22;49473;50.772;8.768;2022-11-11T08:07:33;7.70;99.90
2387;DHT22;49473;50.772;8.768;2022-11-11T08:10:00;7.70;99.90
2387;DHT22;49473;50.772;8.768;2022-11-11T08:12:26;7.70;99.90
2387;DHT22;49473;50.772;8.768;2022-11-11T08:15:12;7.60;99.90
2387;DHT22;49473;50.772;8.768;2022-11-11T08:17:39;7.50;99.90
2387;DHT22;49473;50.772;8.768;2022-11-11T08:20:08;7.50;99.90
2387;DHT22;49473;50.772;8.768;2022-11-11T08:22:36;7.60;99.90
2387;DHT22;49473;50.772;8.768;2022-11-11T08:25:04;7.80;99.90
2387;DHT22;49473;50.772;8.768;2022-11-11T08:27:31;7.90;99.90
2387;DHT22;49473;50.772;8.768;2022-11-11T08:29:57;8.00;99.90
2387;DHT22;49473;50.772;8.768;2022-11-11T08:32:25;8.00;99.90
2387;DHT22;49473;50.772;8.768;2022-11-11T08:34:52;8.00;99.90
2387;DHT22;49473;50.772;8.768;2022-11-11T08:37:19;8.10;99.90
2387;DHT22;49473;50.772;8.768;2022-11-11T08:39:46;8.10;99.90
2387;DHT22;49473;50.772;8.768;2022-11-11T08:42:13;8.20;99.90
2387;DHT22;49473;50.772;8.768;2022-11-11T08:44:41;8.20;99.90
2387;DHT22;49473;50.772;8.768;2022-11-11T08:47:08;8.30;99.90
2387;DHT22;49473;50.772;8.768;2022-11-11T08:49:36;8.40;99.90
2387;DHT22;49473;50.772;8.768;2022-11-11T08:52:03;8.30;99.90
2387;DHT22;49473;50.772;8.768;2022-11-11T08:54:30;8.20;99.90
2387;DHT22;49473;50.772;8.768;2022-11-11T08:56:58;8.20;99.90
2387;DHT22;49473;50.772;8.768;2022-11-11T08:59:26;8.10;99.90
2387;DHT22;49473;50.772;8.768;2022-11-11T09:01:52;8.20;99.90
2387;DHT22;49473;50.772;8.768;2022-11-11T09:04:19;8.20;99.90
2387;DHT22;49473;50.772;8.768;2022-11-11T09:06:47;8.30;99.90
2387;DHT22;49473;50.772;8.768;2022-11-11T09:09:14;8.40;99.90
2387;DHT22;49473;50.772;8.768;2022-11-11T09:11:41;8.40;99.90
2387;DHT22;49473;50.772;8.768;2022-11-11T09:14:08;8.40;99.90
2387;DHT22;49473;50.772;8.768;2022-11-11T09:16:35;8.40;99.90
2387;DHT22;49473;50.772;8.768;2022-11-11T09:19:02;8.30;99.90
2387;DHT22;49473;50.772;8.768;2022-11-11T09:21:29;8.30;99.90
2387;DHT22;49473;50.772;8.768;2022-11-11T09:23:57;8.40;99.90
2387;DHT22;49473;50.772;8.768;2022-11-11T09:26:25;8.40;99.90
2387;DHT22;49473;50.772;8.768;2022-11-11T09:28:52;8.30;99.90
2387;DHT22;49473;50.772;8.768;2022-11-11T09:31:18;8.30;99.90
2387;DHT22;49473;50.772;8.768;2022-11-11T09:33:47;8.30;99.90
2387;DHT22;49473;50.772;8.768;2022-11-11T09:36:14;8.30;99.90
2387;DHT22;49473;50.772;8.768;2022-11-11T09:38:40;8.30;99.90
2387;DHT22;49473;50.772;8.768;2022-11-11T09:41:15;8.30;99.90
2387;DHT22;49473;50.772;8.768;2022-11-11T09:43:50;8.30;99.90
2387;DHT22;49473;50.772;8.768;2022-11-11T09:46:34;8.30;99.90
2387;DHT22;49473;50.772;8.768;2022-11-11T09:49:24;8.40;99.90
2387;DHT22;49473;50.772;8.768;2022-11-11T09:51:57;8.40;99.90
2387;DHT22;49473;50.772;8.768;2022-11-11T09:54:31;8.40;99.90
2387;DHT22;49473;50.772;8.768;2022-11-11T09:57:05;8.50;99.90
2387;DHT22;49473;50.772;8.768;2022-11-11T09:59:40;8.40;99.90
2387;DHT22;49473;50.772;8.768;2022-11-11T10:02:19;8.40;99.90
2387;DHT22;49473;50.772;8.768;2022-11-11T10:04:55;8.40;99.90
2387;DHT22;49473;50.772;8.768;2022-11-11T10:07:27;8.50;99.90
2387;DHT22;49473;50.772;8.768;2022-11-11T10:10:03;8.60;99.90
2387;DHT22;49473;50.772;8.768;2022-11-11T10:12:37;8.70;99.90
2387;DHT22;49473;50.772;8.768;2022-11-11T10:15:10;8.80;99.90
2387;DHT22;49473;50.772;8.768;2022-11-11T10:17:44;8.90;99.90
2387;DHT22;49473;50.772;8.768;2022-11-11T10:20:18;9.10;99.90
2387;DHT22;49473;50.772;8.768;2022-11-11T10:22:48;9.20;99.90
2387;DHT22;49473;50.772;8.768;2022-11-11T10:25:20;9.20;99.90
2387;DHT22;49473;50.772;8.768;2022-11-11T10:27:52;9.20;99.90
2387;DHT22;49473;50.772;8.768;2022-11-11T10:30:22;9.30;99.90
2387;DHT22;49473;50.772;8.768;2022-11-11T10:32:54;9.30;99.90
2387;DHT22;49473;50.772;8.768;2022-11-11T10:35:24;9.40;99.90
2387;DHT22;49473;50.772;8.768;2022-11-11T10:37:58;9.50;99.90
2387;DHT22;49473;50.772;8.768;2022-11-11T10:40:28;9.40;99.90
2387;DHT22;49473;50.772;8.768;2022-11-11T10:43:00;9.40;99.90
2387;DHT22;49473;50.772;8.768;2022-11-11T10:45:30;9.40;99.90
2387;DHT22;49473;50.772;8.768;2022-11-11T10:48:05;9.50;99.90
2387;DHT22;49473;50.772;8.768;2022-11-11T10:50:36;9.60;99.90
2387;DHT22;49473;50.772;8.768;2022-11-11T10:53:11;9.60;99.90
2387;DHT22;49473;50.772;8.768;2022-11-11T10:55:44;9.50;99.90
2387;DHT22;49473;50.772;8.768;2022-11-11T10:58:19;9.50;99.90
2387;DHT22;49473;50.772;8.768;2022-11-11T11:00:49;9.70;99.90
2387;DHT22;49473;50.772;8.768;2022-11-11T11:03:21;9.60;99.90
2387;DHT22;49473;50.772;8.768;2022-11-11T11:05:53;9.60;99.90
2387;DHT22;49473;50.772;8.768;2022-11-11T11:08:24;9.60;99.90
2387;DHT22;49473;50.772;8.768;2022-11-11T11:10:55;9.60;99.90
2387;DHT22;49473;50.772;8.768;2022-11-11T11:13:30;9.60;99.90
2387;DHT22;49473;50.772;8.768;2022-11-11T11:16:03;9.80;99.90
2387;DHT22;49473;50.772;8.768;2022-11-11T11:18:31;9.90;99.90
2387;DHT22;49473;50.772;8.768;2022-11-11T11:20:59;10.00;99.90
2387;DHT22;49473;50.772;8.768;2022-11-11T11:23:38;10.00;99.90
2387;DHT22;49473;50.772;8.768;2022-11-11T11:26:05;10.10;99.90
2387;DHT22;49473;50.772;8.768;2022-11-11T11:28:34;10.10;99.90
2387;DHT22;49473;50.772;8.768;2022-11-11T11:31:03;10.00;99.90
2387;DHT22;49473;50.772;8.768;2022-11-11T11:33:54;10.00;99.90
2387;DHT22;49473;50.772;8.768;2022-11-11T11:36:22;9.80;99.90
2387;DHT22;49473;50.772;8.768;2022-11-11T11:38:49;9.90;99.90
2387;DHT22;49473;50.772;8.768;2022-11-11T11:41:17;9.90;99.90
2387;DHT22;49473;50.772;8.768;2022-11-11T11:44:01;10.00;99.90
2387;DHT22;49473;50.772;8.768;2022-11-11T11:46:34;10.20;99.90
2387;DHT22;49473;50.772;8.768;2022-11-11T11:49:11;10.30;99.90
2387;DHT22;49473;50.772;8.768;2022-11-11T11:51:50;10.30;99.90
2387;DHT22;49473;50.772;8.768;2022-11-11T11:54:40;10.30;99.90
2387;DHT22;49473;50.772;8.768;2022-11-11T11:57:19;10.50;99.90
2387;DHT22;49473;50.772;8.768;2022-11-11T11:59:54;10.50;99.90
2387;DHT22;49473;50.772;8.768;2022-11-11T12:02:39;10.80;99.90
2387;DHT22;49473;50.772;8.768;2022-11-11T12:05:11;10.80;99.90
2387;DHT22;49473;50.772;8.768;2022-11-11T12:07:55;10.80;99.90
2387;DHT22;49473;50.772;8.768;2022-11-11T12:10:29;10.80;99.90
2387;DHT22;49473;50.772;8.768;2022-11-11T12:13:03;10.80;99.90
2387;DHT22;49473;50.772;8.768;2022-11-11T12:15:39;10.90;99.90
2387;DHT22;49473;50.772;8.768;2022-11-11T12:18:26;11.20;99.90
2387;DHT22;49473;50.772;8.768;2022-11-11T12:21:02;11.70;99.90
2387;DHT22;49473;50.772;8.768;2022-11-11T12:23:44;12.00;99.90
2387;DHT22;49473;50.772;8.768;2022-11-11T12:26:20;12.10;99.90
2387;DHT22;49473;50.772;8.768;2022-11-11T12:29:06;11.90;99.90
2387;DHT22;49473;50.772;8.768;2022-11-11T12:31:49;11.70;99.90
2387;DHT22;49473;50.772;8.768;2022-11-11T12:34:30;11.70;99.90
2387;DHT22;49473;50.772;8.768;2022-11-11T12:37:04;11.90;99.90
2387;DHT22;49473;50.772;8.768;2022-11-11T12:39:48;12.40;99.90
2387;DHT22;49473;50.772;8.768;2022-11-11T12:42:26;12.40;99.90
2387;DHT22;49473;50.772;8.768;2022-11-11T12:45:04;12.20;99.90
2387;DHT22;49473;50.772;8.768;2022-11-11T12:47:42;12.00;99.90
2387;DHT22;49473;50.772;8.768;2022-11-11T12:50:17;11.90;99.90
2387;DHT22;49473;50.772;8.768;2022-11-11T12:52:58;11.60;99.90
2387;DHT22;49473;50.772;8.768;2022-11-11T12:55:34;11.40;99.90
2387;DHT22;49473;50.772;8.768;2022-11-11T12:58:15;11.00;99.90
2387;DHT22;49473;50.772;8.768;2022-11-11T13:00:52;11.00;99.90
2387;DHT22;49473;50.772;8.768;2022-11-11T13:03:34;11.00;99.90
2387;DHT22;49473;50.772;8.768;2022-11-11T13:06:22;10.80;99.90
2387;DHT22;49473;50.772;8.768;2022-11-11T13:12:04;10.50;99.90
2387;DHT22;49473;50.772;8.768;2022-11-11T13:14:57;10.50;99.90
2387;DHT22;49473;50.772;8.768;2022-11-11T13:17:25;10.50;99.90
2387;DHT22;49473;50.772;8.768;2022-11-11T13:19:55;10.40;99.90
2387;DHT22;49473;50.772;8.768;2022-11-11T13:22:25;10.40;99.90
2387;DHT22;49473;50.772;8.768;2022-11-11T13:24:54;10.40;99.90
2387;DHT22;49473;50.772;8.768;2022-11-11T13:27:28;10.30;99.90
2387;DHT22;49473;50.772;8.768;2022-11-11T13:30:33;10.20;99.90
2387;DHT22;49473;50.772;8.768;2022-11-11T13:33:04;10.30;99.90
2387;DHT22;49473;50.772;8.768;2022-11-11T13:35:37;10.30;99.90
2387;DHT22;49473;50.772;8.768;2022-11-11T13:38:08;10.40;99.90
2387;DHT22;49473;50.772;8.768;2022-11-11T13:40:40;10.50;99.90
2387;DHT22;49473;50.772;8.768;2022-11-11T13:43:16;10.50;99.90
2387;DHT22;49473;50.772;8.768;2022-11-11T13:45:50;10.50;99.90
2387;DHT22;49473;50.772;8.768;2022-11-11T13:48:22;10.50;99.90
2387;DHT22;49473;50.772;8.768;2022-11-11T13:50:52;10.50;99.90
2387;DHT22;49473;50.772;8.768;2022-11-11T13:53:26;10.50;99.90
2387;DHT22;49473;50.772;8.768;2022-11-11T13:55:59;10.50;99.90
2387;DHT22;49473;50.772;8.768;2022-11-11T13:58:30;10.60;99.90
2387;DHT22;49473;50.772;8.768;2022-11-11T14:00:58;10.60;99.90
2387;DHT22;49473;50.772;8.768;2022-11-11T14:03:59;10.50;99.90
2387;DHT22;49473;50.772;8.768;2022-11-11T14:09:55;10.30;99.90
2387;DHT22;49473;50.772;8.768;2022-11-11T14:12:36;10.30;99.90
2387;DHT22;49473;50.772;8.768;2022-11-11T14:15:04;10.30;99.90
2387;DHT22;49473;50.772;8.768;2022-11-11T14:17:33;10.10;99.90
2387;DHT22;49473;50.772;8.768;2022-11-11T14:23:29;9.90;99.90
2387;DHT22;49473;50.772;8.768;2022-11-11T14:26:24;9.90;99.90
2387;DHT22;49473;50.772;8.768;2022-11-11T14:28:57;9.70;99.90
2387;DHT22;49473;50.772;8.768;2022-11-11T14:31:45;9.70;99.90
2387;DHT22;49473;50.772;8.768;2022-11-11T14:34:22;9.60;99.90
2387;DHT22;49473;50.772;8.768;2022-11-11T14:36:53;9.50;99.90
2387;DHT22;49473;50.772;8.768;2022-11-11T14:39:40;9.50;99.90
2387;DHT22;49473;50.772;8.768;2022-11-11T14:42:42;9.60;99.90
2387;DHT22;49473;50.772;8.768;2022-11-11T14:48:51;9.50;99.90
2387;DHT22;49473;50.772;8.768;2022-11-11T14:51:47;9.50;99.90
2387;DHT22;49473;50.772;8.768;2022-11-11T14:54:21;9.60;99.90
2387;DHT22;49473;50.772;8.768;2022-11-11T14:56:56;9.60;99.90
2387;DHT22;49473;50.772;8.768;2022-11-11T14:59:26;9.50;99.90
2387;DHT22;49473;50.772;8.768;2022-11-11T15:01:55;9.40;99.90
2387;DHT22;49473;50.772;8.768;2022-11-11T15:04:23;9.30;99.90
2387;DHT22;49473;50.772;8.768;2022-11-11T15:06:55;9.30;99.90
2387;DHT22;49473;50.772;8.768;2022-11-11T15:09:47;9.30;99.90
2387;DHT22;49473;50.772;8.768;2022-11-11T15:12:25;9.30;99.90
2387;DHT22;49473;50.772;8.768;2022-11-11T15:15:01;9.30;99.90
2387;DHT22;49473;50.772;8.768;2022-11-11T15:17:38;9.30;99.90
2387;DHT22;49473;50.772;8.768;2022-11-11T15:20:22;9.20;99.90
2387;DHT22;49473;50.772;8.768;2022-11-11T15:22:59;9.10;99.90
2387;DHT22;49473;50.772;8.768;2022-11-11T15:25:36;9.10;99.90
2387;DHT22;49473;50.772;8.768;2022-11-11T15:28:15;9.00;99.90
2387;DHT22;49473;50.772;8.768;2022-11-11T15:31:04;9.00;99.90
2387;DHT22;49473;50.772;8.768;2022-11-11T15:33:43;8.90;99.90
2387;DHT22;49473;50.772;8.768;2022-11-11T15:36:16;8.90;99.90
2387;DHT22;49473;50.772;8.768;2022-11-11T15:38:45;8.90;99.90
2387;DHT22;49473;50.772;8.768;2022-11-11T15:41:21;8.90;99.90
2387;DHT22;49473;50.772;8.768;2022-11-11T15:43:49;8.90;99.90
2387;DHT22;49473;50.772;8.768;2022-11-11T15:46:23;8.90;99.90
2387;DHT22;49473;50.772;8.768;2022-11-11T15:48:51;8.90;99.90
2387;DHT22;49473;50.772;8.768;2022-11-11T15:51:27;8.80;99.90
2387;DHT22;49473;50.772;8.768;2022-11-11T15:54:09;8.90;99.90
2387;DHT22;49473;50.772;8.768;2022-11-11T15:56:36;8.90;99.90
2387;DHT22;49473;50.772;8.768;2022-11-11T15:59:17;8.80;99.90
2387;DHT22;49473;50.772;8.768;2022-11-11T16:01:45;8.70;99.90
2387;DHT22;49473;50.772;8.768;2022-11-11T16:04:16;8.60;99.90
2387;DHT22;49473;50.772;8.768;2022-11-11T16:06:44;8.60;99.90
2387;DHT22;49473;50.772;8.768;2022-11-11T16:09:12;8.60;99.90
2387;DHT22;49473;50.772;8.768;2022-11-11T16:11:40;8.50;99.90
2387;DHT22;49473;50.772;8.768;2022-11-11T16:14:21;8.50;99.90
2387;DHT22;49473;50.772;8.768;2022-11-11T16:16:54;8.50;99.90
2387;DHT22;49473;50.772;8.768;2022-11-11T16:19:28;8.50;99.90
2387;DHT22;49473;50.772;8.768;2022-11-11T16:22:02;8.60;99.90
2387;DHT22;49473;50.772;8.768;2022-11-11T16:24:31;8.60;99.90
2387;DHT22;49473;50.772;8.768;2022-11-11T16:27:00;8.50;99.90
2387;DHT22;49473;50.772;8.768;2022-11-11T16:29:33;8.50;99.90
2387;DHT22;49473;50.772;8.768;2022-11-11T16:32:18;8.50;99.90
2387;DHT22;49473;50.772;8.768;2022-11-11T16:34:45;8.60;99.90
2387;DHT22;49473;50.772;8.768;2022-11-11T16:37:13;8.40;99.90
2387;DHT22;49473;50.772;8.768;2022-11-11T16:39:42;8.40;99.90
2387;DHT22;49473;50.772;8.768;2022-11-11T16:42:21;8.30;99.90
2387;DHT22;49473;50.772;8.768;2022-11-11T16:44:55;8.20;99.90
2387;DHT22;49473;50.772;8.768;2022-11-11T16:47:47;8.20;99.90
2387;DHT22;49473;50.772;8.768;2022-11-11T16:50:16;8.30;99.90